Time;durP1;ratioP1;P1;durP2;ratioP2;P2;SDS_P1;SDS_P2;PMS_P1;PMS_P2;Temp;Humidity;BMP_temperature;BMP_pressure;BME280_temperature;BME280_humidity;BME280_pressure;Samples;Min_cycle;Max_cycle;Signal;HPM_P1;HPM_P2
2024/01/05 00:00:27;;;;;;;;;;;;;;;6.45;100.00;98391.81;4984990;28;19922;-86
2024/01/05 00:02:54;;;;;;;;;;;;;;;6.42;100.00;98383.22;4984693;28;19940;-86
2024/01/05 00:05:19;;;;;;;;;;;;;;;6.48;100.00;98385.56;4986348;28;19918;-86
2024/01/05 00:07:44;;;;;;;;;;;;;;;6.44;100.00;98379.56;4986094;28;20353;-86
2024/01/05 00:10:12;;;;;;;;;;;;;;;6.35;100.00;98372.97;4984853;28;19914;-87
2024/01/05 00:12:37;;;;;;;;;;;;;;;6.36;100.00;98379.09;5010178;28;20384;-87
2024/01/05 00:15:03;;;;;;;;;;;;;;;6.46;100.00;98371.59;4986035;28;19922;-86
2024/01/05 00:17:28;;;;;;;;;;;;;;;6.41;100.00;98361.28;4984844;28;20024;-86
2024/01/05 00:19:53;;;;;;;;;;;;;;;6.38;100.00;98361.44;4985818;28;19918;-86
2024/01/05 00:22:19;;;;;;;;;;;;;;;6.41;100.00;98368.34;4986266;28;20020;-85
2024/01/05 06:13:12;;;;;;;;;;;;;;;6.43;100.00;98161.25;4958634;28;20025;-86
2024/01/05 06:15:38;;;;;;;;;;;;;;;6.38;100.00;98164.13;4974351;28;20366;-83
2024/01/05 06:18:03;;;;;;;;;;;;;;;6.31;100.00;98160.94;4973974;28;20428;-83
2024/01/05 06:20:29;;;;;;;;;;;;;;;6.31;100.00;98160.94;4974407;28;19945;-82
2024/01/05 06:22:54;;;;;;;;;;;;;;;6.40;100.00;98166.66;4974083;28;20020;-83
2024/01/05 06:25:19;;;;;;;;;;;;;;;6.33;100.00;98160.88;4974180;28;19922;-84
2024/01/05 06:27:46;;;;;;;;;;;;;;;6.31;100.00;98165.38;4972109;28;20437;-84
2024/01/05 06:30:12;;;;;;;;;;;;;;;6.35;100.00;98162.50;4973935;28;20293;-84
2024/01/05 06:32:38;;;;;;;;;;;;;;;6.41;100.00;98166.59;4973006;28;20361;-84
2024/01/05 06:35:04;;;;;;;;;;;;;;;6.41;100.00;98160.47;4973829;28;19961;-84
2024/01/05 06:37:29;;;;;;;;;;;;;;;6.34;100.00;98160.81;4974121;28;20429;-85
2024/01/05 06:39:54;;;;;;;;;;;;;;;6.44;100.00;98157.69;4973753;28;19918;-83
2024/01/05 06:42:20;;;;;;;;;;;;;;;6.50;100.00;98168.75;4972203;28;19993;-84
2024/01/05 06:44:45;;;;;;;;;;;;;;;6.50;100.00;98179.28;4973575;28;19918;-84
2024/01/05 06:47:10;;;;;;;;;;;;;;;6.48;100.00;98177.66;4973530;28;19925;-86
2024/01/05 06:49:35;;;;;;;;;;;;;;;6.47;100.00;98182.06;4973807;28;19941;-82
2024/01/05 06:52:01;;;;;;;;;;;;;;;6.44;100.00;98184.00;4973845;28;20010;-84
2024/01/05 06:54:26;;;;;;;;;;;;;;;6.54;100.00;98178.19;4973591;28;19965;-84
2024/01/05 06:56:52;;;;;;;;;;;;;;;6.50;100.00;98183.69;4972003;28;19922;-84
2024/01/05 06:59:18;;;;;;;;;;;;;;;6.52;100.00;98194.97;4972034;28;19933;-86
2024/01/05 07:01:43;;;;;;;;;;;;;;;6.47;100.00;98187.31;4971175;28;19918;-83
2024/01/05 07:04:08;;;;;;;;;;;;;;;6.52;100.00;98192.34;4972605;28;19925;-83
2024/01/05 07:06:34;;;;;;;;;;;;;;;6.52;100.00;98187.09;4973489;28;19918;-82
2024/01/05 07:08:59;;;;;;;;;;;;;;;6.53;100.00;98186.16;4972064;28;19922;-82
2024/01/05 07:11:24;;;;;;;;;;;;;;;6.61;100.00;98183.16;4972127;28;19926;-82
2024/01/05 07:13:50;;;;;;;;;;;;;;;6.51;100.00;98188.00;4971153;28;19986;-82
2024/01/05 07:16:19;;;;;;;;;;;;;;;6.45;100.00;98180.47;4971910;28;20474;-82
2024/01/05 07:18:46;;;;;;;;;;;;;;;6.50;100.00;98188.97;4973516;28;20041;-83
2024/01/05 07:21:11;;;;;;;;;;;;;;;6.58;100.00;98184.16;4972403;28;20016;-84
2024/01/05 07:23:36;;;;;;;;;;;;;;;6.58;100.00;98184.16;4972018;28;20029;-82
2024/01/05 07:26:01;;;;;;;;;;;;;;;6.60;100.00;98190.16;4971945;28;20305;-82
2024/01/05 07:28:27;;;;;;;;;;;;;;;6.54;100.00;98186.09;4971839;28;20306;-83
2024/01/05 07:30:52;;;;;;;;;;;;;;;6.48;100.00;98177.66;4967440;28;19997;-82
2024/01/05 07:33:17;;;;;;;;;;;;;;;6.57;100.00;98176.31;4971831;28;19933;-84
2024/01/05 07:35:42;;;;;;;;;;;;;;;6.51;100.00;98177.47;4972017;28;19918;-83
2024/01/05 07:38:08;;;;;;;;;;;;;;;6.54;100.00;98182.59;4969630;28;20068;-83
2024/01/05 07:40:33;;;;;;;;;;;;;;;6.54;100.00;98185.22;4971902;28;19918;-84
2024/01/05 07:42:58;;;;;;;;;;;;;;;6.52;100.00;98184.47;4970687;28;19925;-82
2024/01/05 07:45:23;;;;;;;;;;;;;;;6.51;100.00;98185.38;4972965;28;19918;-84
2024/01/05 07:47:49;;;;;;;;;;;;;;;6.41;100.00;98187.63;4973001;28;19918;-80
2024/01/05 07:50:14;;;;;;;;;;;;;;;6.43;100.00;98192.81;4973182;28;20448;-81
2024/01/05 07:52:40;;;;;;;;;;;;;;;6.44;100.00;98200.63;4973681;28;20373;-81
2024/01/05 07:55:06;;;;;;;;;;;;;;;6.44;100.00;98207.69;4976856;28;19923;-81
2024/01/05 07:57:31;;;;;;;;;;;;;;;6.46;100.00;98203.19;4975581;28;19922;-81
2024/01/05 07:59:56;;;;;;;;;;;;;;;6.48;100.00;98198.72;4976819;28;19926;-81
2024/01/05 08:02:22;;;;;;;;;;;;;;;6.43;100.00;98193.69;4976323;28;19918;-82
2024/01/05 08:04:47;;;;;;;;;;;;;;;6.38;100.00;98189.59;4976661;28;19926;-82
2024/01/05 08:07:13;;;;;;;;;;;;;;;6.47;100.00;98182.06;4976671;28;19918;-82
2024/01/05 08:09:40;;;;;;;;;;;;;;;6.41;100.00;98184.16;4976599;28;20017;-82
2024/01/05 08:12:05;;;;;;;;;;;;;;;6.53;100.00;98186.16;4974520;28;19922;-82
2024/01/05 08:44:04;;;;;;;;;;;;;;;6.52;100.00;98173.94;4973223;28;19949;-84
2024/01/05 08:46:30;;;;;;;;;;;;;;;6.57;100.00;98171.91;4985459;28;20309;-84
2024/01/05 08:48:55;;;;;;;;;;;;;;;6.54;100.00;98177.31;4985807;28;20009;-85
2024/01/05 08:51:20;;;;;;;;;;;;;;;6.62;100.00;98171.66;4985923;28;19956;-83
2024/01/05 08:53:46;;;;;;;;;;;;;;;6.52;100.00;98177.41;4985815;28;19965;-90
2024/01/05 08:56:11;;;;;;;;;;;;;;;6.58;100.00;98186.78;4985670;28;20041;-84
2024/01/05 08:58:36;;;;;;;;;;;;;;;6.67;100.00;98183.66;4983873;28;19918;-84
2024/01/05 09:01:02;;;;;;;;;;;;;;;6.61;100.00;98193.69;4985278;28;19962;-85
2024/01/05 09:03:28;;;;;;;;;;;;;;;6.58;100.00;98213.09;4985185;28;19918;-86
2024/01/05 09:05:53;;;;;;;;;;;;;;;6.65;100.00;98208.34;4985347;28;19949;-84
2024/01/05 09:08:18;;;;;;;;;;;;;;;6.63;100.00;98208.44;4984880;28;19925;-86
2024/01/05 09:10:43;;;;;;;;;;;;;;;6.62;100.00;98214.66;5008027;28;19969;-86
2024/01/05 09:13:09;;;;;;;;;;;;;;;6.72;100.00;98217.66;4983852;28;19926;-86
2024/01/05 09:15:34;;;;;;;;;;;;;;;6.73;100.00;98214.94;4984956;28;19925;-84
2024/01/05 09:17:59;;;;;;;;;;;;;;;6.67;100.00;98211.75;5008493;28;19918;-86
2024/01/05 09:20:24;;;;;;;;;;;;;;;6.69;100.00;98212.53;4984838;28;20364;-87
2024/01/05 09:22:50;;;;;;;;;;;;;;;6.51;100.00;98216.97;4985505;28;19917;-88
2024/01/05 09:25:15;;;;;;;;;;;;;;;6.54;100.00;98209.78;4983811;28;19926;-85
2024/01/05 09:27:40;;;;;;;;;;;;;;;6.57;100.00;98219.28;4983356;28;19945;-86
2024/01/05 09:30:06;;;;;;;;;;;;;;;6.53;100.00;98217.75;4984495;28;20012;-86
2024/01/05 09:32:31;;;;;;;;;;;;;;;6.58;100.00;98225.41;4985031;28;19945;-86
2024/01/05 09:34:57;;;;;;;;;;;;;;;6.59;100.00;98217.44;4983685;28;20374;-87
2024/01/05 09:37:22;;;;;;;;;;;;;;;6.59;100.00;98225.34;4984365;28;19922;-87
2024/01/05 09:39:48;;;;;;;;;;;;;;;6.73;100.00;98224.59;4984576;28;19918;-86
2024/01/05 09:42:20;;;;;;;;;;;;;;;6.73;100.00;98236.00;4983694;28;19992;-87
2024/01/05 09:44:47;;;;;;;;;;;;;;;6.68;100.00;98243.25;4984337;28;20373;-86
2024/01/05 09:47:14;;;;;;;;;;;;;;;6.64;100.00;98241.72;4984540;28;20487;-86
2024/01/05 09:49:44;;;;;;;;;;;;;;;6.64;100.00;98252.25;4984468;28;19922;-87
2024/01/05 09:52:11;;;;;;;;;;;;;;;6.67;100.00;98262.63;5007996;28;19932;-89
2024/01/05 09:54:37;;;;;;;;;;;;;;;6.52;100.00;98253.72;4984678;28;19925;-89
2024/01/05 10:00:03;;;;;;;;;;;;;;;6.66;100.00;98268.81;4962499;28;19918;-87
2024/01/05 10:02:51;;;;;;;;;;;;;;;6.64;100.00;98273.31;4981115;28;19997;-91
2024/01/05 10:05:17;;;;;;;;;;;;;;;6.60;100.00;98277.03;4989011;23;20282;-86
2024/01/05 10:07:45;;;;;;;;;;;;;;;6.59;100.00;98280.59;4983328;28;19948;-89
2024/01/05 10:10:34;;;;;;;;;;;;;;;6.62;100.00;98283.09;4984368;28;20012;-92
2024/01/05 10:13:04;;;;;;;;;;;;;;;6.63;100.00;98271.59;4982109;28;20385;-85
2024/01/05 10:15:30;;;;;;;;;;;;;;;6.61;100.00;98278.75;4982664;28;19922;-85
2024/01/05 10:17:57;;;;;;;;;;;;;;;6.68;100.00;98287.16;4984405;28;20419;-87
2024/01/05 10:20:27;;;;;;;;;;;;;;;6.63;100.00;98282.13;4982392;28;20380;-85
2024/01/05 10:22:52;;;;;;;;;;;;;;;6.63;100.00;98279.50;4983579;28;19965;-86
2024/01/05 10:25:21;;;;;;;;;;;;;;;6.62;100.00;98285.72;4983611;28;19926;-87
2024/01/05 10:27:47;;;;;;;;;;;;;;;6.62;100.00;98279.56;4982820;28;20071;-86
2024/01/05 10:30:23;;;;;;;;;;;;;;;6.57;100.00;98281.59;4984103;28;19918;-86
2024/01/05 10:33:01;;;;;;;;;;;;;;;6.58;100.00;98273.63;4983866;28;19965;-85
2024/01/05 10:35:26;;;;;;;;;;;;;;;6.66;100.00;98274.09;4983465;28;20361;-85
2024/01/05 10:38:03;;;;;;;;;;;;;;;6.58;100.00;98275.41;4983821;28;19918;-89
2024/01/05 10:40:28;;;;;;;;;;;;;;;6.54;100.00;98272.94;4989735;28;19972;-85
2024/01/05 10:43:06;;;;;;;;;;;;;;;6.64;100.00;98272.47;4982530;28;19917;-86
2024/01/05 10:45:31;;;;;;;;;;;;;;;6.67;100.00;98274.91;4983119;28;19926;-84
2024/01/05 10:47:57;;;;;;;;;;;;;;;6.64;100.00;98278.59;4983290;28;19918;-84
2024/01/05 10:50:22;;;;;;;;;;;;;;;6.64;100.00;98269.84;4983332;28;20353;-85
2024/01/05 10:52:48;;;;;;;;;;;;;;;6.50;100.00;98273.16;4983205;28;19922;-85
2024/01/05 10:55:13;;;;;;;;;;;;;;;6.60;100.00;98277.03;4983238;28;20392;-86
2024/01/05 10:57:40;;;;;;;;;;;;;;;6.50;100.00;98275.78;4981959;28;19926;-87
2024/01/05 11:00:05;;;;;;;;;;;;;;;6.66;100.00;98268.81;4990186;28;19925;-85
2024/01/05 11:02:33;;;;;;;;;;;;;;;6.69;100.00;98286.25;4983186;28;19926;-86
2024/01/05 11:05:08;;;;;;;;;;;;;;;6.58;100.00;98288.56;4983191;28;19977;-86
2024/01/05 11:07:34;;;;;;;;;;;;;;;6.53;100.00;98280.91;4989921;28;19928;-87
2024/01/05 11:09:59;;;;;;;;;;;;;;;6.62;100.00;98283.09;4982271;28;20281;-86
2024/01/05 11:12:36;;;;;;;;;;;;;;;6.56;100.00;98278.13;4981150;28;19921;-86
2024/01/05 11:15:01;;;;;;;;;;;;;;;6.66;100.00;98274.09;4981217;28;20008;-86
2024/01/05 11:17:45;;;;;;;;;;;;;;;6.68;100.00;98268.75;4983115;28;20033;-87
2024/01/05 11:20:33;;;;;;;;;;;;;;;6.59;100.00;98267.44;4983340;28;20063;-85
2024/01/05 11:22:58;;;;;;;;;;;;;;;6.62;100.00;98262.03;4982700;28;19918;-88
2024/01/05 11:25:24;;;;;;;;;;;;;;;6.60;100.00;98261.22;4982789;28;20266;-86
2024/01/05 11:27:49;;;;;;;;;;;;;;;6.58;100.00;98265.72;4985703;28;19918;-87
2024/01/05 11:30:34;;;;;;;;;;;;;;;6.49;100.00;98263.56;4989502;28;19914;-87
2024/01/05 11:32:59;;;;;;;;;;;;;;;6.47;100.00;98252.28;5003089;28;19918;-85
2024/01/05 11:35:25;;;;;;;;;;;;;;;6.45;100.00;98257.59;4989555;28;19921;-91
2024/01/05 11:37:50;;;;;;;;;;;;;;;6.53;100.00;98262.50;4989780;28;20085;-84
2024/01/05 11:40:27;;;;;;;;;;;;;;;6.55;100.00;98263.25;4989250;28;19913;-85
2024/01/05 11:42:53;;;;;;;;;;;;;;;6.56;100.00;98254.44;4988003;28;20258;-88
2024/01/05 11:45:37;;;;;;;;;;;;;;;6.51;100.00;98253.78;4989031;28;19945;-86
2024/01/05 11:48:02;;;;;;;;;;;;;;;6.60;100.00;98253.34;4988981;28;20460;-84
2024/01/05 11:50:34;;;;;;;;;;;;;;;6.56;100.00;98249.19;4989427;28;19918;-84
2024/01/05 11:53:16;;;;;;;;;;;;;;;6.55;100.00;98250.09;4988961;28;19940;-81
2024/01/05 11:55:48;;;;;;;;;;;;;;;6.50;100.00;98254.75;4989141;28;20008;-84
2024/01/05 11:58:17;;;;;;;;;;;;;;;6.52;100.00;98252.88;4987986;28;19929;-86
2024/01/05 12:00:54;;;;;;;;;;;;;;;6.53;100.00;98258.06;4989705;28;19921;-87
2024/01/05 12:03:22;;;;;;;;;;;;;;;6.59;100.00;98262.19;4990465;28;19953;-88
2024/01/05 12:05:48;;;;;;;;;;;;;;;6.56;100.00;98254.44;4989116;28;19926;-84
2024/01/05 12:08:14;;;;;;;;;;;;;;;6.51;100.00;98261.69;4989352;28;19922;-85
2024/01/05 12:10:40;;;;;;;;;;;;;;;6.41;100.00;98256.03;4989258;28;19976;-91
2024/01/05 12:13:05;;;;;;;;;;;;;;;6.46;100.00;98253.19;4986930;28;20344;-85
2024/01/05 12:15:31;;;;;;;;;;;;;;;6.54;100.00;98253.66;4988867;28;19973;-85
2024/01/05 12:18:09;;;;;;;;;;;;;;;6.53;100.00;98255.44;4988828;28;20285;-85
2024/01/05 12:20:37;;;;;;;;;;;;;;;6.51;100.00;98256.44;4995469;28;20017;-83
2024/01/05 12:23:03;;;;;;;;;;;;;;;6.48;100.00;98262.72;4988823;28;19918;-84
2024/01/05 12:25:36;;;;;;;;;;;;;;;6.51;100.00;98251.16;4988916;28;19946;-89
2024/01/05 12:28:01;;;;;;;;;;;;;;;6.54;100.00;98251.88;4994520;28;19917;-85
2024/01/05 12:30:27;;;;;;;;;;;;;;;6.52;100.00;98253.72;4989022;28;19926;-84
2024/01/05 12:32:52;;;;;;;;;;;;;;;6.47;100.00;98261.00;4988690;28;19918;-84
2024/01/05 12:35:18;;;;;;;;;;;;;;;6.46;100.00;98256.69;4989016;28;19914;-84
2024/01/05 12:37:52;;;;;;;;;;;;;;;6.47;100.00;98253.09;4988585;28;20293;-87
2024/01/05 12:40:23;;;;;;;;;;;;;;;6.44;100.00;98252.41;4991580;28;19958;-84
2024/01/05 12:42:49;;;;;;;;;;;;;;;6.44;100.00;98247.16;4984784;28;19914;-86
2024/01/05 12:45:15;;;;;;;;;;;;;;;6.47;100.00;98247.00;4986809;28;20381;-86
2024/01/05 12:47:41;;;;;;;;;;;;;;;6.48;100.00;98248.72;4984398;28;19922;-83
2024/01/05 12:50:21;;;;;;;;;;;;;;;6.51;100.00;98235.38;4984622;28;20008;-87
2024/01/05 12:53:06;;;;;;;;;;;;;;;6.41;100.00;98247.31;4985260;28;19945;-88
2024/01/05 12:55:32;;;;;;;;;;;;;;;6.54;100.00;98241.34;4988490;28;19968;-93
2024/01/05 12:58:02;;;;;;;;;;;;;;;6.55;100.00;98235.16;4984386;28;19922;-84
2024/01/05 13:00:27;;;;;;;;;;;;;;;6.49;100.00;98243.38;4985038;28;20413;-84
2024/01/05 13:02:52;;;;;;;;;;;;;;;6.53;100.00;98244.06;4985609;28;19953;-83
2024/01/05 13:05:27;;;;;;;;;;;;;;;6.48;100.00;98241.66;4991650;28;20340;-83
2024/01/05 13:07:58;;;;;;;;;;;;;;;6.51;100.00;98243.28;4985448;28;20010;-83
2024/01/05 13:10:23;;;;;;;;;;;;;;;6.55;100.00;98239.56;4985145;28;20365;-91
2024/01/05 13:12:49;;;;;;;;;;;;;;;6.48;100.00;98240.81;4984014;28;19922;-82
2024/01/05 13:15:14;;;;;;;;;;;;;;;6.47;100.00;98245.22;4992038;28;19925;-84
2024/01/05 13:17:46;;;;;;;;;;;;;;;6.43;100.00;98242.81;4985004;28;20012;-86
2024/01/05 13:20:11;;;;;;;;;;;;;;;6.44;100.00;98249.78;4984192;28;19926;-85
2024/01/05 13:22:36;;;;;;;;;;;;;;;6.38;100.00;98245.66;4985135;28;19964;-82
2024/01/05 13:25:02;;;;;;;;;;;;;;;6.43;100.00;98250.69;4983787;28;19969;-83
2024/01/05 13:27:27;;;;;;;;;;;;;;;6.50;100.00;98249.47;4983257;28;20250;-87
2024/01/05 13:29:53;;;;;;;;;;;;;;;6.51;100.00;98241.50;4991795;28;20285;-83
2024/01/05 13:32:21;;;;;;;;;;;;;;;6.47;100.00;98244.38;4984304;28;19918;-93
2024/01/05 13:34:47;;;;;;;;;;;;;;;6.46;100.00;98238.28;4991393;28;20247;-85
2024/01/05 13:37:12;;;;;;;;;;;;;;;6.47;100.00;98239.09;4984561;28;19926;-83
2024/01/05 13:39:39;;;;;;;;;;;;;;;6.41;100.00;98239.41;4985268;28;20012;-84
2024/01/05 13:42:04;;;;;;;;;;;;;;;6.52;100.00;98243.19;4982778;28;19989;-83
2024/01/05 13:44:30;;;;;;;;;;;;;;;6.60;100.00;98240.19;4984919;28;19918;-84
2024/01/05 13:46:55;;;;;;;;;;;;;;;6.58;100.00;98249.94;4984572;28;19973;-84
2024/01/05 13:49:20;;;;;;;;;;;;;;;6.58;100.00;98247.31;4984112;28;19952;-84
2024/01/05 13:51:45;;;;;;;;;;;;;;;6.50;100.00;98254.75;4983601;28;20289;-83
2024/01/05 13:54:13;;;;;;;;;;;;;;;6.53;100.00;98252.81;4984089;28;20297;-91
2024/01/05 13:56:38;;;;;;;;;;;;;;;6.48;100.00;98248.72;4981827;28;19919;-83
2024/01/05 13:59:03;;;;;;;;;;;;;;;6.53;100.00;98255.44;4984054;28;20281;-83
2024/01/05 14:01:29;;;;;;;;;;;;;;;6.55;100.00;98252.72;4984322;28;20293;-83
2024/01/05 14:03:54;;;;;;;;;;;;;;;6.46;100.00;98253.19;4982719;28;19924;-85
2024/01/05 14:06:19;;;;;;;;;;;;;;;6.52;100.00;98256.34;4983932;28;20013;-85
2024/01/05 14:08:47;;;;;;;;;;;;;;;6.45;100.00;98252.34;4983879;28;19922;-89
2024/01/05 14:11:13;;;;;;;;;;;;;;;6.43;100.00;98246.31;4983710;28;20005;-87
2024/01/05 14:13:38;;;;;;;;;;;;;;;6.46;100.00;98247.91;4982709;28;19932;-84
2024/01/05 14:16:05;;;;;;;;;;;;;;;6.50;100.00;98246.84;4983618;28;20001;-85
2024/01/05 14:18:30;;;;;;;;;;;;;;;6.45;100.00;98246.25;4984047;28;19969;-85
2024/01/05 14:20:59;;;;;;;;;;;;;;;6.47;100.00;98249.63;4983753;28;19918;-84
2024/01/05 14:23:24;;;;;;;;;;;;;;;6.57;100.00;98250.84;4983495;28;20385;-84
2024/01/05 14:25:50;;;;;;;;;;;;;;;6.57;100.00;98248.22;4984068;28;20012;-84
2024/01/05 14:28:15;;;;;;;;;;;;;;;6.49;100.00;98256.53;4982629;28;19922;-85
2024/01/05 14:30:40;;;;;;;;;;;;;;;6.51;100.00;98253.78;4983418;28;20365;-84
2024/01/05 14:33:07;;;;;;;;;;;;;;;6.50;100.00;98254.75;4983219;28;19960;-84
2024/01/05 14:35:32;;;;;;;;;;;;;;;6.53;100.00;98259.84;4983288;28;19965;-84
2024/01/05 14:37:58;;;;;;;;;;;;;;;6.52;100.00;98248.44;4983447;28;19922;-84
2024/01/05 14:40:23;;;;;;;;;;;;;;;6.37;100.00;98259.78;4981775;28;19925;-84
2024/01/05 14:42:48;;;;;;;;;;;;;;;6.46;100.00;98261.06;4982099;28;20358;-84
2024/01/05 14:45:14;;;;;;;;;;;;;;;6.39;100.00;98260.53;4982895;28;19918;-84
2024/01/05 14:47:39;;;;;;;;;;;;;;;6.49;100.00;98261.81;4983389;28;19957;-85
2024/01/05 14:50:05;;;;;;;;;;;;;;;6.45;100.00;98264.66;4982847;28;20550;-88
2024/01/05 14:52:30;;;;;;;;;;;;;;;6.45;100.00;98262.03;4989965;28;19921;-84
2024/01/05 14:54:57;;;;;;;;;;;;;;;6.44;100.00;98265.56;4983708;28;19931;-83
2024/01/05 14:57:22;;;;;;;;;;;;;;;6.48;100.00;98265.34;4982101;28;19918;-84
2024/01/05 14:59:47;;;;;;;;;;;;;;;6.38;100.00;98263.25;4983015;28;19921;-84
2024/01/05 15:02:13;;;;;;;;;;;;;;;6.44;100.00;98262.94;4982533;28;20281;-84
2024/01/05 15:04:38;;;;;;;;;;;;;;;6.36;100.00;98263.31;4982723;28;19984;-86
2024/01/05 15:07:03;;;;;;;;;;;;;;;6.39;100.00;98268.44;4983105;28;19991;-84
2024/01/05 15:09:29;;;;;;;;;;;;;;;6.30;100.00;98271.50;4982883;28;19926;-84
2024/01/05 15:11:54;;;;;;;;;;;;;;;6.32;100.00;98269.69;4982380;28;20792;-83
2024/01/05 15:14:19;;;;;;;;;;;;;;;6.33;100.00;98274.88;4982736;28;19925;-85
2024/01/05 15:16:49;;;;;;;;;;;;;;;6.33;100.00;98266.97;4982895;28;19918;-84
2024/01/05 15:19:14;;;;;;;;;;;;;;;6.31;100.00;98267.97;4982784;28;19918;-84
2024/01/05 15:21:40;;;;;;;;;;;;;;;6.33;100.00;98269.59;4982517;28;19944;-85
2024/01/05 15:24:05;;;;;;;;;;;;;;;6.30;100.00;98271.50;4982709;28;19918;-83
2024/01/05 15:26:30;;;;;;;;;;;;;;;6.30;100.00;98271.50;4982034;28;19929;-84
2024/01/05 15:29:01;;;;;;;;;;;;;;;6.31;100.00;98268.81;4982586;28;19918;-84
2024/01/05 15:31:26;;;;;;;;;;;;;;;6.22;100.00;98271.88;4983245;28;19924;-85
2024/01/05 15:33:51;;;;;;;;;;;;;;;7.93;100.00;98259.44;4982960;28;19923;-83
2024/01/05 15:36:17;;;;;;;;;;;;;;;6.67;100.00;98267.91;4982609;28;19953;-82
2024/01/05 15:38:44;;;;;;;;;;;;;;;6.46;100.00;98274.22;4982739;28;19929;-84
2024/01/05 15:41:09;;;;;;;;;;;;;;;6.31;100.00;98276.69;4982390;28;19929;-82
2024/01/05 15:43:35;;;;;;;;;;;;;;;6.27;100.00;98284.81;4981433;28;19918;-83
2024/01/05 15:46:01;;;;;;;;;;;;;;;6.24;100.00;98277.94;4982853;28;19926;-82
2024/01/05 15:48:26;;;;;;;;;;;;;;;6.21;100.00;98274.59;4981303;28;20008;-82
2024/01/05 15:50:51;;;;;;;;;;;;;;;6.19;100.00;98279.97;4982340;28;19933;-82
2024/01/05 15:53:16;;;;;;;;;;;;;;;6.22;100.00;98276.31;4982799;28;19918;-82
2024/01/05 15:55:42;;;;;;;;;;;;;;;6.19;100.00;98274.69;4982892;28;20380;-82
2024/01/05 15:58:07;;;;;;;;;;;;;;;6.22;100.00;98273.69;4981548;28;19917;-81
2024/01/05 16:00:32;;;;;;;;;;;;;;;6.24;100.00;98275.31;4982533;28;19918;-82
2024/01/05 16:02:58;;;;;;;;;;;;;;;6.15;100.00;98283.66;4982977;28;20100;-81
2024/01/05 16:05:23;;;;;;;;;;;;;;;6.19;100.00;98282.59;4982549;28;19977;-81
2024/01/05 16:07:48;;;;;;;;;;;;;;;6.18;100.00;98286.13;4981002;28;20005;-88
2024/01/05 16:10:13;;;;;;;;;;;;;;;6.18;100.00;98292.25;4981242;28;19925;-82
2024/01/05 16:12:39;;;;;;;;;;;;;;;6.21;100.00;98291.25;4981584;28;19926;-81
2024/01/05 16:15:04;;;;;;;;;;;;;;;6.25;100.00;98292.78;4985333;28;19917;-81
2024/01/05 16:17:34;;;;;;;;;;;;;;;6.26;100.00;98298.91;4985978;28;19965;-81
2024/01/05 16:19:59;;;;;;;;;;;;;;;6.23;100.00;98294.66;4986364;28;20367;-81
2024/01/05 16:22:28;;;;;;;;;;;;;;;6.21;100.00;98307.03;4986187;28;20009;-82
2024/01/05 16:24:53;;;;;;;;;;;;;;;6.24;100.00;98311.28;4985703;28;19922;-86
2024/01/05 16:27:30;;;;;;;;;;;;;;;6.25;100.00;98312.97;4984492;28;20270;-90
2024/01/05 16:29:58;;;;;;;;;;;;;;;6.27;100.00;98311.13;4985401;28;19918;-90
2024/01/05 16:32:23;;;;;;;;;;;;;;;6.28;100.00;98316.31;5000389;28;19968;-84
2024/01/05 16:34:48;;;;;;;;;;;;;;;6.18;100.00;98307.19;4984701;28;19965;-82
2024/01/05 16:37:16;;;;;;;;;;;;;;;6.17;100.00;98315.97;4985440;28;20523;-91
2024/01/05 16:39:41;;;;;;;;;;;;;;;6.19;100.00;98306.25;4985135;28;19917;-84
2024/01/05 16:42:06;;;;;;;;;;;;;;;6.17;100.00;98310.72;4984404;28;19975;-81
2024/01/05 16:44:32;;;;;;;;;;;;;;;6.17;100.00;98316.84;4986026;28;20388;-82
2024/01/05 16:46:57;;;;;;;;;;;;;;;6.16;100.00;98320.41;4984978;28;20401;-83
2024/01/05 16:49:25;;;;;;;;;;;;;;;6.10;100.00;98318.06;4985488;28;19925;-82
2024/01/05 16:51:50;;;;;;;;;;;;;;;6.15;100.00;98321.31;4992606;28;20127;-83
2024/01/05 16:54:17;;;;;;;;;;;;;;;6.00;100.00;98320.28;4985774;28;20293;-83
2024/01/05 16:56:42;;;;;;;;;;;;;;;6.04;100.00;98325.41;4983196;28;20432;-81
2024/01/05 16:59:07;;;;;;;;;;;;;;;6.18;100.00;98318.53;4985072;28;20028;-83
2024/01/05 17:01:33;;;;;;;;;;;;;;;6.09;100.00;98321.59;4985055;28;19922;-82
2024/01/05 17:03:58;;;;;;;;;;;;;;;6.03;100.00;98315.78;4985195;28;19926;-86
2024/01/05 17:06:23;;;;;;;;;;;;;;;5.99;100.00;98323.81;4985725;28;19922;-90
2024/01/05 17:08:49;;;;;;;;;;;;;;;5.95;100.00;98314.38;4985041;28;19926;-87
2024/01/05 17:11:15;;;;;;;;;;;;;;;6.11;100.00;98313.63;4985579;28;20366;-82
2024/01/05 17:13:40;;;;;;;;;;;;;;;6.69;100.00;98318.69;4983529;28;19925;-83
2024/01/05 17:16:09;;;;;;;;;;;;;;;6.52;100.00;98318.66;4985486;28;19976;-87
2024/01/05 17:18:35;;;;;;;;;;;;;;;6.97;100.00;98322.53;4985087;28;20048;-81
2024/01/05 17:21:00;;;;;;;;;;;;;;;7.43;100.00;98325.38;4985595;28;19922;-82
2024/01/05 17:23:26;;;;;;;;;;;;;;;7.52;100.00;98328.50;4985342;28;19917;-80
2024/01/05 17:25:52;;;;;;;;;;;;;;;7.60;100.00;98328.94;4984720;28;20021;-81
2024/01/05 17:28:17;;;;;;;;;;;;;;;7.14;100.00;98336.63;4983481;28;19961;-80
2024/01/05 17:30:43;;;;;;;;;;;;;;;7.01;100.00;98326.72;4984483;28;20004;-80
2024/01/05 17:33:08;;;;;;;;;;;;;;;6.95;100.00;98332.28;4984480;28;19922;-81
2024/01/05 17:35:34;;;;;;;;;;;;;;;6.90;100.00;98339.59;4984816;28;19957;-82
2024/01/05 17:37:59;;;;;;;;;;;;;;;6.90;100.00;98339.59;4984841;28;19926;-81
2024/01/05 17:40:25;;;;;;;;;;;;;;;6.83;100.00;98336.41;4985873;28;19922;-80
2024/01/05 17:42:50;;;;;;;;;;;;;;;6.76;100.00;98332.38;4984491;28;19917;-82
2024/01/05 17:45:15;;;;;;;;;;;;;;;6.76;100.00;98334.16;4985410;28;20005;-82
2024/01/05 17:47:40;;;;;;;;;;;;;;;6.76;100.00;98335.00;4984324;28;19926;-85
2024/01/05 17:50:06;;;;;;;;;;;;;;;6.75;100.00;98338.59;4985164;28;19914;-81
2024/01/05 17:52:31;;;;;;;;;;;;;;;6.72;100.00;98334.31;4984454;28;19918;-88
2024/01/05 17:54:56;;;;;;;;;;;;;;;6.59;100.00;98337.63;4983305;28;19914;-84
2024/01/05 17:57:22;;;;;;;;;;;;;;;6.57;100.00;98336.88;4982673;28;20301;-84
2024/01/05 17:59:47;;;;;;;;;;;;;;;6.53;100.00;98334.38;4984783;28;19924;-84
2024/01/05 18:02:13;;;;;;;;;;;;;;;6.60;100.00;98348.09;4983996;28;20015;-81
2024/01/05 18:04:41;;;;;;;;;;;;;;;6.59;100.00;98348.16;4984297;28;19972;-82
2024/01/05 18:07:06;;;;;;;;;;;;;;;6.46;100.00;98343.53;4984084;28;19925;-83
2024/01/05 18:09:32;;;;;;;;;;;;;;;6.44;100.00;98352.41;4983221;28;20309;-85
2024/01/05 18:11:57;;;;;;;;;;;;;;;6.39;100.00;98341.25;4982554;28;19968;-80
2024/01/05 18:14:23;;;;;;;;;;;;;;;6.45;100.00;98354.13;4984007;28;20292;-81
2024/01/05 18:16:49;;;;;;;;;;;;;;;6.32;100.00;98357.34;4982391;28;19918;-80
2024/01/05 18:19:14;;;;;;;;;;;;;;;6.28;100.00;98355.78;4982754;28;20277;-80
2024/01/05 18:21:49;;;;;;;;;;;;;;;6.38;100.00;98352.69;4983895;28;19922;-83
2024/01/05 18:24:14;;;;;;;;;;;;;;;6.31;100.00;98366.16;4992401;28;19918;-80
2024/01/05 18:26:43;;;;;;;;;;;;;;;6.32;100.00;98359.13;4984511;28;19918;-81
2024/01/05 18:29:09;;;;;;;;;;;;;;;6.30;100.00;98364.47;4983708;28;19961;-80
2024/01/05 18:31:36;;;;;;;;;;;;;;;6.23;100.00;98365.66;4983760;28;20487;-81
2024/01/05 18:34:03;;;;;;;;;;;;;;;6.42;100.00;98362.16;4983019;28;19922;-84
2024/01/05 18:36:29;;;;;;;;;;;;;;;6.36;100.00;98365.94;4983150;28;19961;-81
2024/01/05 18:38:55;;;;;;;;;;;;;;;6.38;100.00;98366.69;4983736;28;20352;-82
2024/01/05 18:41:21;;;;;;;;;;;;;;;6.44;100.00;98370.81;4982613;28;19958;-81
2024/01/05 18:43:46;;;;;;;;;;;;;;;6.40;100.00;98364.00;4982388;28;20037;-81
2024/01/05 18:46:12;;;;;;;;;;;;;;;6.38;100.00;98377.22;4982974;28;19945;-85
2024/01/05 18:48:37;;;;;;;;;;;;;;;6.24;100.00;98364.75;4983456;28;20004;-81
2024/01/05 18:51:03;;;;;;;;;;;;;;;6.09;100.00;98370.72;4982896;28;19914;-81
2024/01/05 18:53:28;;;;;;;;;;;;;;;5.99;100.00;98376.41;4990054;28;19918;-81
2024/01/05 18:55:54;;;;;;;;;;;;;;;5.98;100.00;98371.22;4983268;28;19922;-77
2024/01/05 18:58:21;;;;;;;;;;;;;;;5.92;100.00;98377.59;4983110;28;19921;-86
2024/01/05 19:00:46;;;;;;;;;;;;;;;5.87;100.00;98382.22;4981916;28;19960;-79
2024/01/05 19:03:11;;;;;;;;;;;;;;;5.83;100.00;98386.75;4984020;28;20411;-82
2024/01/05 19:05:37;;;;;;;;;;;;;;;5.75;100.00;98399.41;4981820;28;19933;-81